sensor_id;sensor_type;location;lat;lon;timestamp;temperature;humidity
43810;DHT22;29440;48.208;11.162;2023-04-03T00:01:31;2.70;99.90
43810;DHT22;29440;48.208;11.162;2023-04-03T00:03:57;2.70;99.90
43810;DHT22;29440;48.208;11.162;2023-04-03T00:06:23;2.70;99.90
43810;DHT22;29440;48.208;11.162;2023-04-03T00:08:50;2.70;99.90
43810;DHT22;29440;48.208;11.162;2023-04-03T00:11:17;2.70;99.90
43810;DHT22;29440;48.208;11.162;2023-04-03T00:13:43;2.60;99.90
43810;DHT22;29440;48.208;11.162;2023-04-03T00:16:09;2.60;99.90
43810;DHT22;29440;48.208;11.162;2023-04-03T00:18:38;2.60;99.90
43810;DHT22;29440;48.208;11.162;2023-04-03T00:21:04;2.60;99.90
43810;DHT22;29440;48.208;11.162;2023-04-03T00:23:30;2.60;99.90
43810;DHT22;29440;48.208;11.162;2023-04-03T00:26:16;2.60;99.90
43810;DHT22;29440;48.208;11.162;2023-04-03T00:28:42;2.60;99.90
43810;DHT22;29440;48.208;11.162;2023-04-03T00:31:07;2.60;99.90
43810;DHT22;29440;48.208;11.162;2023-04-03T00:33:33;2.60;99.90
43810;DHT22;29440;48.208;11.162;2023-04-03T00:35:58;2.60;99.90
43810;DHT22;29440;48.208;11.162;2023-04-03T00:38:24;2.60;99.90
43810;DHT22;29440;48.208;11.162;2023-04-03T00:40:50;2.60;99.90
43810;DHT22;29440;48.208;11.162;2023-04-03T00:43:24;2.60;99.90
43810;DHT22;29440;48.208;11.162;2023-04-03T00:45:52;2.60;99.90
43810;DHT22;29440;48.208;11.162;2023-04-03T00:48:27;2.60;99.90
43810;DHT22;29440;48.208;11.162;2023-04-03T00:50:54;2.50;99.90
43810;DHT22;29440;48.208;11.162;2023-04-03T00:53:31;2.50;99.90
43810;DHT22;29440;48.208;11.162;2023-04-03T00:55:59;2.50;99.90
43810;DHT22;29440;48.208;11.162;2023-04-03T00:58:33;2.50;99.90
43810;DHT22;29440;48.208;11.162;2023-04-03T01:01:06;2.40;99.90
43810;DHT22;29440;48.208;11.162;2023-04-03T01:03:33;2.50;99.90
43810;DHT22;29440;48.208;11.162;2023-04-03T01:05:59;2.50;99.90
43810;DHT22;29440;48.208;11.162;2023-04-03T01:08:24;2.40;99.90
43810;DHT22;29440;48.208;11.162;2023-04-03T01:10:50;2.50;99.90
43810;DHT22;29440;48.208;11.162;2023-04-03T01:13:23;2.50;99.90
43810;DHT22;29440;48.208;11.162;2023-04-03T01:15:49;2.40;99.90
43810;DHT22;29440;48.208;11.162;2023-04-03T01:18:15;2.40;99.90
43810;DHT22;29440;48.208;11.162;2023-04-03T01:21:07;2.40;99.90
43810;DHT22;29440;48.208;11.162;2023-04-03T01:23:44;2.40;99.90
43810;DHT22;29440;48.208;11.162;2023-04-03T01:26:13;2.40;99.90
43810;DHT22;29440;48.208;11.162;2023-04-03T01:28:38;2.40;99.90
43810;DHT22;29440;48.208;11.162;2023-04-03T01:31:40;2.40;99.90
43810;DHT22;29440;48.208;11.162;2023-04-03T01:34:06;2.40;99.90
43810;DHT22;29440;48.208;11.162;2023-04-03T01:36:31;2.40;99.90
43810;DHT22;29440;48.208;11.162;2023-04-03T01:38:58;2.30;99.90
43810;DHT22;29440;48.208;11.162;2023-04-03T01:41:24;2.30;99.90
43810;DHT22;29440;48.208;11.162;2023-04-03T01:43:51;2.30;99.90
43810;DHT22;29440;48.208;11.162;2023-04-03T01:46:17;2.30;99.90
43810;DHT22;29440;48.208;11.162;2023-04-03T01:48:43;2.20;99.90
43810;DHT22;29440;48.208;11.162;2023-04-03T01:51:09;2.30;99.90
43810;DHT22;29440;48.208;11.162;2023-04-03T01:53:35;2.30;99.90
43810;DHT22;29440;48.208;11.162;2023-04-03T01:56:00;2.20;99.90
43810;DHT22;29440;48.208;11.162;2023-04-03T01:58:26;2.20;99.90
43810;DHT22;29440;48.208;11.162;2023-04-03T02:00:52;2.20;99.90
43810;DHT22;29440;48.208;11.162;2023-04-03T02:03:18;2.20;99.90
43810;DHT22;29440;48.208;11.162;2023-04-03T02:05:44;2.20;99.90
43810;DHT22;29440;48.208;11.162;2023-04-03T02:08:10;2.20;99.90
43810;DHT22;29440;48.208;11.162;2023-04-03T02:10:36;2.20;99.90
43810;DHT22;29440;48.208;11.162;2023-04-03T02:13:01;2.20;99.90
43810;DHT22;29440;48.208;11.162;2023-04-03T02:15:27;2.20;99.90
43810;DHT22;29440;48.208;11.162;2023-04-03T02:17:52;2.20;99.90
43810;DHT22;29440;48.208;11.162;2023-04-03T02:20:18;2.20;99.90
43810;DHT22;29440;48.208;11.162;2023-04-03T02:22:44;2.20;99.90
43810;DHT22;29440;48.208;11.162;2023-04-03T02:25:10;2.20;99.90
43810;DHT22;29440;48.208;11.162;2023-04-03T02:27:36;2.10;99.90
43810;DHT22;29440;48.208;11.162;2023-04-03T02:30:02;2.20;99.90
43810;DHT22;29440;48.208;11.162;2023-04-03T02:32:29;2.10;99.90
43810;DHT22;29440;48.208;11.162;2023-04-03T02:34:54;2.20;99.90
43810;DHT22;29440;48.208;11.162;2023-04-03T02:37:20;2.10;99.90
43810;DHT22;29440;48.208;11.162;2023-04-03T02:39:46;2.20;99.90
43810;DHT22;29440;48.208;11.162;2023-04-03T02:42:12;2.20;99.90
43810;DHT22;29440;48.208;11.162;2023-04-03T02:44:37;2.10;99.90
43810;DHT22;29440;48.208;11.162;2023-04-03T02:47:04;2.20;99.90
43810;DHT22;29440;48.208;11.162;2023-04-03T02:49:31;2.20;99.90
43810;DHT22;29440;48.208;11.162;2023-04-03T02:51:56;2.20;99.90
43810;DHT22;29440;48.208;11.162;2023-04-03T02:54:22;2.20;99.90
43810;DHT22;29440;48.208;11.162;2023-04-03T02:56:49;2.20;99.90
43810;DHT22;29440;48.208;11.162;2023-04-03T02:59:14;2.20;99.90
43810;DHT22;29440;48.208;11.162;2023-04-03T03:01:40;2.20;99.90
43810;DHT22;29440;48.208;11.162;2023-04-03T03:04:06;2.20;99.90
43810;DHT22;29440;48.208;11.162;2023-04-03T03:06:32;2.20;99.90
43810;DHT22;29440;48.208;11.162;2023-04-03T03:08:57;2.20;99.90
43810;DHT22;29440;48.208;11.162;2023-04-03T03:11:23;2.20;99.90
43810;DHT22;29440;48.208;11.162;2023-04-03T03:13:48;2.20;99.90
43810;DHT22;29440;48.208;11.162;2023-04-03T03:16:15;2.20;99.90
43810;DHT22;29440;48.208;11.162;2023-04-03T03:18:41;2.20;99.90
43810;DHT22;29440;48.208;11.162;2023-04-03T03:21:06;2.20;99.90
43810;DHT22;29440;48.208;11.162;2023-04-03T03:23:33;2.20;99.90
43810;DHT22;29440;48.208;11.162;2023-04-03T03:26:04;2.20;99.90
43810;DHT22;29440;48.208;11.162;2023-04-03T03:28:30;2.30;99.90
43810;DHT22;29440;48.208;11.162;2023-04-03T03:30:56;2.20;99.90
43810;DHT22;29440;48.208;11.162;2023-04-03T03:33:22;2.20;99.90
43810;DHT22;29440;48.208;11.162;2023-04-03T03:35:48;2.20;99.90
43810;DHT22;29440;48.208;11.162;2023-04-03T03:38:13;2.30;99.90
43810;DHT22;29440;48.208;11.162;2023-04-03T03:40:39;2.30;99.90
43810;DHT22;29440;48.208;11.162;2023-04-03T03:43:04;2.30;99.90
43810;DHT22;29440;48.208;11.162;2023-04-03T03:45:30;2.30;99.90
43810;DHT22;29440;48.208;11.162;2023-04-03T03:47:56;2.30;99.90
43810;DHT22;29440;48.208;11.162;2023-04-03T03:50:22;2.30;99.90
43810;DHT22;29440;48.208;11.162;2023-04-03T03:52:47;2.30;99.90
43810;DHT22;29440;48.208;11.162;2023-04-03T03:55:13;2.30;99.90
43810;DHT22;29440;48.208;11.162;2023-04-03T03:57:38;2.30;99.90
43810;DHT22;29440;48.208;11.162;2023-04-03T04:00:04;2.30;99.90
43810;DHT22;29440;48.208;11.162;2023-04-03T04:02:31;2.30;99.90
43810;DHT22;29440;48.208;11.162;2023-04-03T04:04:56;2.30;99.90
43810;DHT22;29440;48.208;11.162;2023-04-03T04:07:22;2.30;99.90
43810;DHT22;29440;48.208;11.162;2023-04-03T04:09:48;2.30;99.90
43810;DHT22;29440;48.208;11.162;2023-04-03T04:12:13;2.30;99.90
43810;DHT22;29440;48.208;11.162;2023-04-03T04:14:39;2.30;99.90
43810;DHT22;29440;48.208;11.162;2023-04-03T04:17:05;2.30;99.90
43810;DHT22;29440;48.208;11.162;2023-04-03T04:19:31;2.30;99.90
43810;DHT22;29440;48.208;11.162;2023-04-03T04:21:56;2.30;99.90
43810;DHT22;29440;48.208;11.162;2023-04-03T04:24:25;2.30;99.90
43810;DHT22;29440;48.208;11.162;2023-04-03T04:26:50;2.30;99.90
43810;DHT22;29440;48.208;11.162;2023-04-03T04:29:16;2.30;99.90
43810;DHT22;29440;48.208;11.162;2023-04-03T04:31:42;2.30;99.90
43810;DHT22;29440;48.208;11.162;2023-04-03T04:34:07;2.30;99.90
43810;DHT22;29440;48.208;11.162;2023-04-03T04:36:33;2.30;99.90
43810;DHT22;29440;48.208;11.162;2023-04-03T04:38:59;2.40;99.90
43810;DHT22;29440;48.208;11.162;2023-04-03T04:41:24;2.30;99.90
43810;DHT22;29440;48.208;11.162;2023-04-03T04:43:51;2.20;99.90
43810;DHT22;29440;48.208;11.162;2023-04-03T04:46:17;2.20;99.90
43810;DHT22;29440;48.208;11.162;2023-04-03T04:48:43;2.20;99.90
43810;DHT22;29440;48.208;11.162;2023-04-03T04:51:10;2.20;99.90
43810;DHT22;29440;48.208;11.162;2023-04-03T04:53:35;2.20;99.90
43810;DHT22;29440;48.208;11.162;2023-04-03T04:56:01;2.20;99.90
43810;DHT22;29440;48.208;11.162;2023-04-03T04:58:27;2.20;99.90
43810;DHT22;29440;48.208;11.162;2023-04-03T05:01:04;2.20;99.90
43810;DHT22;29440;48.208;11.162;2023-04-03T05:03:30;2.20;99.90
43810;DHT22;29440;48.208;11.162;2023-04-03T05:05:56;2.20;99.90
43810;DHT22;29440;48.208;11.162;2023-04-03T05:08:21;2.20;99.90
43810;DHT22;29440;48.208;11.162;2023-04-03T05:10:47;2.20;99.90
43810;DHT22;29440;48.208;11.162;2023-04-03T05:13:13;2.20;99.90
43810;DHT22;29440;48.208;11.162;2023-04-03T05:15:39;2.20;99.90
43810;DHT22;29440;48.208;11.162;2023-04-03T05:18:04;2.20;99.90
43810;DHT22;29440;48.208;11.162;2023-04-03T05:20:31;2.10;99.90
43810;DHT22;29440;48.208;11.162;2023-04-03T05:22:56;2.10;99.90
43810;DHT22;29440;48.208;11.162;2023-04-03T05:25:22;2.20;99.90
43810;DHT22;29440;48.208;11.162;2023-04-03T05:27:48;2.20;99.90
43810;DHT22;29440;48.208;11.162;2023-04-03T05:30:14;2.20;99.90
43810;DHT22;29440;48.208;11.162;2023-04-03T05:32:39;2.20;99.90
43810;DHT22;29440;48.208;11.162;2023-04-03T05:35:05;2.20;99.90
43810;DHT22;29440;48.208;11.162;2023-04-03T05:37:31;2.20;99.90
43810;DHT22;29440;48.208;11.162;2023-04-03T05:39:57;2.20;99.90
43810;DHT22;29440;48.208;11.162;2023-04-03T05:42:22;2.20;99.90
43810;DHT22;29440;48.208;11.162;2023-04-03T05:44:48;2.20;99.90
43810;DHT22;29440;48.208;11.162;2023-04-03T05:47:16;2.20;99.90
43810;DHT22;29440;48.208;11.162;2023-04-03T05:49:41;2.30;99.90
43810;DHT22;29440;48.208;11.162;2023-04-03T05:54:42;2.30;99.90
43810;DHT22;29440;48.208;11.162;2023-04-03T05:57:09;2.30;99.90
43810;DHT22;29440;48.208;11.162;2023-04-03T05:59:35;2.30;99.90
43810;DHT22;29440;48.208;11.162;2023-04-03T06:02:01;2.30;99.90
43810;DHT22;29440;48.208;11.162;2023-04-03T06:04:27;2.30;99.90
43810;DHT22;29440;48.208;11.162;2023-04-03T06:06:55;2.40;99.90
43810;DHT22;29440;48.208;11.162;2023-04-03T06:09:25;2.30;99.90
43810;DHT22;29440;48.208;11.162;2023-04-03T06:11:52;2.30;99.90
43810;DHT22;29440;48.208;11.162;2023-04-03T06:14:17;2.30;99.90
43810;DHT22;29440;48.208;11.162;2023-04-03T06:16:43;2.40;99.90
43810;DHT22;29440;48.208;11.162;2023-04-03T06:19:11;2.40;99.90
43810;DHT22;29440;48.208;11.162;2023-04-03T06:21:57;2.40;99.90
43810;DHT22;29440;48.208;11.162;2023-04-03T06:24:22;2.50;99.90
43810;DHT22;29440;48.208;11.162;2023-04-03T06:26:49;2.50;99.90
43810;DHT22;29440;48.208;11.162;2023-04-03T06:29:16;2.50;99.90
43810;DHT22;29440;48.208;11.162;2023-04-03T06:31:42;2.60;99.90
43810;DHT22;29440;48.208;11.162;2023-04-03T06:34:08;2.60;99.90
43810;DHT22;29440;48.208;11.162;2023-04-03T06:36:33;2.60;99.90
43810;DHT22;29440;48.208;11.162;2023-04-03T06:39:00;2.60;99.90
43810;DHT22;29440;48.208;11.162;2023-04-03T06:41:25;2.70;99.90
43810;DHT22;29440;48.208;11.162;2023-04-03T06:43:51;2.70;99.90
43810;DHT22;29440;48.208;11.162;2023-04-03T06:46:20;2.80;99.90
43810;DHT22;29440;48.208;11.162;2023-04-03T06:48:46;2.80;99.90
43810;DHT22;29440;48.208;11.162;2023-04-03T06:51:24;2.90;99.90
43810;DHT22;29440;48.208;11.162;2023-04-03T06:53:52;2.90;99.90
43810;DHT22;29440;48.208;11.162;2023-04-03T06:56:18;3.00;99.90
43810;DHT22;29440;48.208;11.162;2023-04-03T06:58:45;3.10;99.90
43810;DHT22;29440;48.208;11.162;2023-04-03T07:01:13;3.20;99.90
43810;DHT22;29440;48.208;11.162;2023-04-03T07:03:40;3.10;99.90
43810;DHT22;29440;48.208;11.162;2023-04-03T07:06:06;3.20;99.90
43810;DHT22;29440;48.208;11.162;2023-04-03T07:08:33;3.30;99.90
43810;DHT22;29440;48.208;11.162;2023-04-03T07:10:59;3.30;99.90
43810;DHT22;29440;48.208;11.162;2023-04-03T07:13:24;3.30;99.90
43810;DHT22;29440;48.208;11.162;2023-04-03T07:15:50;3.40;99.90
43810;DHT22;29440;48.208;11.162;2023-04-03T07:18:16;3.40;99.90
43810;DHT22;29440;48.208;11.162;2023-04-03T07:20:44;3.50;99.90
43810;DHT22;29440;48.208;11.162;2023-04-03T07:23:10;3.40;99.90
43810;DHT22;29440;48.208;11.162;2023-04-03T07:25:36;3.40;99.90
43810;DHT22;29440;48.208;11.162;2023-04-03T07:28:03;3.40;99.90
43810;DHT22;29440;48.208;11.162;2023-04-03T07:30:29;3.40;99.90
43810;DHT22;29440;48.208;11.162;2023-04-03T07:32:54;3.50;99.90
43810;DHT22;29440;48.208;11.162;2023-04-03T07:35:20;3.60;99.90
43810;DHT22;29440;48.208;11.162;2023-04-03T07:37:45;3.60;99.90
43810;DHT22;29440;48.208;11.162;2023-04-03T07:40:11;3.60;99.90
43810;DHT22;29440;48.208;11.162;2023-04-03T07:42:37;3.70;99.90
43810;DHT22;29440;48.208;11.162;2023-04-03T07:45:05;3.70;99.90
43810;DHT22;29440;48.208;11.162;2023-04-03T07:47:31;3.70;99.90
43810;DHT22;29440;48.208;11.162;2023-04-03T07:49:57;3.70;99.90
43810;DHT22;29440;48.208;11.162;2023-04-03T07:52:23;3.70;99.90
43810;DHT22;29440;48.208;11.162;2023-04-03T07:54:49;3.70;99.90
43810;DHT22;29440;48.208;11.162;2023-04-03T07:57:15;3.70;99.90
43810;DHT22;29440;48.208;11.162;2023-04-03T07:59:41;3.70;99.90
43810;DHT22;29440;48.208;11.162;2023-04-03T08:02:12;3.80;99.90
43810;DHT22;29440;48.208;11.162;2023-04-03T08:04:38;3.70;99.90
43810;DHT22;29440;48.208;11.162;2023-04-03T08:07:04;3.70;99.90
43810;DHT22;29440;48.208;11.162;2023-04-03T08:09:30;3.80;99.90
43810;DHT22;29440;48.208;11.162;2023-04-03T08:11:55;3.80;99.90
43810;DHT22;29440;48.208;11.162;2023-04-03T08:14:21;3.80;99.90
43810;DHT22;29440;48.208;11.162;2023-04-03T08:16:47;3.90;99.90
43810;DHT22;29440;48.208;11.162;2023-04-03T08:19:13;3.90;99.90
43810;DHT22;29440;48.208;11.162;2023-04-03T08:21:40;3.90;99.90
43810;DHT22;29440;48.208;11.162;2023-04-03T08:24:09;3.90;99.90
43810;DHT22;29440;48.208;11.162;2023-04-03T08:26:35;3.90;99.90
43810;DHT22;29440;48.208;11.162;2023-04-03T08:29:01;4.00;99.90
43810;DHT22;29440;48.208;11.162;2023-04-03T08:31:27;4.00;99.90
43810;DHT22;29440;48.208;11.162;2023-04-03T08:33:53;4.10;99.90
43810;DHT22;29440;48.208;11.162;2023-04-03T08:36:26;4.10;99.90
43810;DHT22;29440;48.208;11.162;2023-04-03T08:38:53;4.10;99.90
43810;DHT22;29440;48.208;11.162;2023-04-03T08:41:33;4.20;99.90
43810;DHT22;29440;48.208;11.162;2023-04-03T08:49:42;4.10;99.90
43810;DHT22;29440;48.208;11.162;2023-04-03T08:57:53;4.30;99.90
43810;DHT22;29440;48.208;11.162;2023-04-03T09:00:23;4.30;99.90
43810;DHT22;29440;48.208;11.162;2023-04-03T09:02:55;4.30;99.90
43810;DHT22;29440;48.208;11.162;2023-04-03T09:05:51;4.30;99.90
43810;DHT22;29440;48.208;11.162;2023-04-03T09:08:28;4.40;99.90
43810;DHT22;29440;48.208;11.162;2023-04-03T09:11:07;4.40;99.90
43810;DHT22;29440;48.208;11.162;2023-04-03T09:13:52;4.50;99.90
43810;DHT22;29440;48.208;11.162;2023-04-03T09:19:24;4.50;99.90
43810;DHT22;29440;48.208;11.162;2023-04-03T09:22:31;4.60;99.90
43810;DHT22;29440;48.208;11.162;2023-04-03T09:25:20;4.70;99.90
43810;DHT22;29440;48.208;11.162;2023-04-03T09:27:46;4.80;99.90
43810;DHT22;29440;48.208;11.162;2023-04-03T09:30:17;4.80;99.90
43810;DHT22;29440;48.208;11.162;2023-04-03T09:32:49;4.90;99.90
43810;DHT22;29440;48.208;11.162;2023-04-03T09:35:20;4.90;99.90
43810;DHT22;29440;48.208;11.162;2023-04-03T09:37:48;5.00;99.90
43810;DHT22;29440;48.208;11.162;2023-04-03T09:40:28;5.10;99.90
43810;DHT22;29440;48.208;11.162;2023-04-03T09:42:59;5.20;99.90
43810;DHT22;29440;48.208;11.162;2023-04-03T09:45:33;5.20;99.90
43810;DHT22;29440;48.208;11.162;2023-04-03T09:48:16;5.20;99.90
43810;DHT22;29440;48.208;11.162;2023-04-03T09:51:00;5.30;99.90
43810;DHT22;29440;48.208;11.162;2023-04-03T09:53:41;5.30;99.90
43810;DHT22;29440;48.208;11.162;2023-04-03T09:58:44;5.50;99.90
43810;DHT22;29440;48.208;11.162;2023-04-03T10:01:41;5.40;99.90
43810;DHT22;29440;48.208;11.162;2023-04-03T10:04:08;5.40;99.90
43810;DHT22;29440;48.208;11.162;2023-04-03T10:06:46;5.40;99.90
43810;DHT22;29440;48.208;11.162;2023-04-03T10:09:27;5.50;99.90
43810;DHT22;29440;48.208;11.162;2023-04-03T10:12:10;5.50;99.90
43810;DHT22;29440;48.208;11.162;2023-04-03T10:14:38;5.50;99.90
43810;DHT22;29440;48.208;11.162;2023-04-03T10:22:41;5.40;99.90
43810;DHT22;29440;48.208;11.162;2023-04-03T10:33:32;5.20;99.90
43810;DHT22;29440;48.208;11.162;2023-04-03T10:39:02;5.10;99.90
43810;DHT22;29440;48.208;11.162;2023-04-03T10:44:29;4.90;99.90
43810;DHT22;29440;48.208;11.162;2023-04-03T10:47:02;4.90;99.90
43810;DHT22;29440;48.208;11.162;2023-04-03T10:52:24;4.80;99.90
43810;DHT22;29440;48.208;11.162;2023-04-03T10:57:23;4.70;99.90
43810;DHT22;29440;48.208;11.162;2023-04-03T10:59:59;4.70;99.90
43810;DHT22;29440;48.208;11.162;2023-04-03T11:05:37;4.70;99.90
43810;DHT22;29440;48.208;11.162;2023-04-03T11:10:50;4.70;99.90
43810;DHT22;29440;48.208;11.162;2023-04-03T11:16:01;4.50;99.90
43810;DHT22;29440;48.208;11.162;2023-04-03T11:18:47;4.50;99.90
43810;DHT22;29440;48.208;11.162;2023-04-03T11:21:45;4.50;99.90
43810;DHT22;29440;48.208;11.162;2023-04-03T11:24:32;4.60;99.90
43810;DHT22;29440;48.208;11.162;2023-04-03T11:27:00;4.60;99.90
43810;DHT22;29440;48.208;11.162;2023-04-03T11:29:34;4.50;99.90
43810;DHT22;29440;48.208;11.162;2023-04-03T11:35:03;4.50;99.90
43810;DHT22;29440;48.208;11.162;2023-04-03T11:37:40;4.50;99.90
43810;DHT22;29440;48.208;11.162;2023-04-03T11:42:47;4.60;99.90
43810;DHT22;29440;48.208;11.162;2023-04-03T11:47:58;4.70;99.90
43810;DHT22;29440;48.208;11.162;2023-04-03T11:52:58;4.80;99.90
43810;DHT22;29440;48.208;11.162;2023-04-03T12:08:25;4.90;99.90
43810;DHT22;29440;48.208;11.162;2023-04-03T12:16:29;4.70;99.90
43810;DHT22;29440;48.208;11.162;2023-04-03T12:19:02;4.60;99.90
43810;DHT22;29440;48.208;11.162;2023-04-03T12:24:32;4.60;99.90
43810;DHT22;29440;48.208;11.162;2023-04-03T12:48:28;5.10;99.90
43810;DHT22;29440;48.208;11.162;2023-04-03T12:50:55;5.20;99.90
43810;DHT22;29440;48.208;11.162;2023-04-03T12:53:28;5.40;99.90
43810;DHT22;29440;48.208;11.162;2023-04-03T12:56:23;5.60;99.90
43810;DHT22;29440;48.208;11.162;2023-04-03T12:58:49;5.90;99.90
43810;DHT22;29440;48.208;11.162;2023-04-03T13:01:21;6.00;99.90
43810;DHT22;29440;48.208;11.162;2023-04-03T13:03:52;6.10;99.90
43810;DHT22;29440;48.208;11.162;2023-04-03T13:06:31;6.20;99.90
43810;DHT22;29440;48.208;11.162;2023-04-03T13:09:00;6.30;99.90
43810;DHT22;29440;48.208;11.162;2023-04-03T13:11:30;6.40;99.90
43810;DHT22;29440;48.208;11.162;2023-04-03T13:14:02;6.40;99.90
43810;DHT22;29440;48.208;11.162;2023-04-03T13:16:29;6.40;99.90
43810;DHT22;29440;48.208;11.162;2023-04-03T13:18:55;6.50;99.90
43810;DHT22;29440;48.208;11.162;2023-04-03T13:21:28;6.60;99.90
43810;DHT22;29440;48.208;11.162;2023-04-03T13:23:59;6.60;99.90
43810;DHT22;29440;48.208;11.162;2023-04-03T13:26:29;6.60;99.90
43810;DHT22;29440;48.208;11.162;2023-04-03T13:29:14;6.60;99.90
43810;DHT22;29440;48.208;11.162;2023-04-03T13:31:56;6.60;99.90
43810;DHT22;29440;48.208;11.162;2023-04-03T13:34:24;6.60;99.90
43810;DHT22;29440;48.208;11.162;2023-04-03T13:39:23;6.50;99.90
43810;DHT22;29440;48.208;11.162;2023-04-03T13:41:55;6.30;99.90
43810;DHT22;29440;48.208;11.162;2023-04-03T13:46:57;6.30;99.90
43810;DHT22;29440;48.208;11.162;2023-04-03T13:49:31;6.40;99.90
43810;DHT22;29440;48.208;11.162;2023-04-03T13:51:57;6.30;99.90
43810;DHT22;29440;48.208;11.162;2023-04-03T13:56:55;6.40;99.90
43810;DHT22;29440;48.208;11.162;2023-04-03T13:59:26;6.30;99.90
43810;DHT22;29440;48.208;11.162;2023-04-03T14:02:15;6.40;99.90
43810;DHT22;29440;48.208;11.162;2023-04-03T14:07:15;6.20;99.90
43810;DHT22;29440;48.208;11.162;2023-04-03T14:09:41;6.20;99.90
43810;DHT22;29440;48.208;11.162;2023-04-03T14:12:12;6.10;99.90
43810;DHT22;29440;48.208;11.162;2023-04-03T14:14:40;6.00;99.90
43810;DHT22;29440;48.208;11.162;2023-04-03T14:17:18;6.00;99.90
43810;DHT22;29440;48.208;11.162;2023-04-03T14:19:45;5.90;99.90
43810;DHT22;29440;48.208;11.162;2023-04-03T14:22:18;5.80;99.90
43810;DHT22;29440;48.208;11.162;2023-04-03T14:24:44;5.80;99.90
43810;DHT22;29440;48.208;11.162;2023-04-03T14:27:34;5.80;99.90
43810;DHT22;29440;48.208;11.162;2023-04-03T14:30:01;5.80;99.90
43810;DHT22;29440;48.208;11.162;2023-04-03T14:32:28;5.70;99.90
43810;DHT22;29440;48.208;11.162;2023-04-03T14:34:54;5.80;99.90
43810;DHT22;29440;48.208;11.162;2023-04-03T14:37:24;5.80;99.90
43810;DHT22;29440;48.208;11.162;2023-04-03T14:39:51;5.80;99.90
43810;DHT22;29440;48.208;11.162;2023-04-03T14:42:21;5.90;99.90
43810;DHT22;29440;48.208;11.162;2023-04-03T14:44:47;6.00;99.90
43810;DHT22;29440;48.208;11.162;2023-04-03T14:47:16;6.10;99.90
43810;DHT22;29440;48.208;11.162;2023-04-03T14:49:57;6.10;99.90
43810;DHT22;29440;48.208;11.162;2023-04-03T14:52:32;6.00;99.90
43810;DHT22;29440;48.208;11.162;2023-04-03T14:54:59;6.00;99.90
43810;DHT22;29440;48.208;11.162;2023-04-03T14:57:27;6.10;99.90
43810;DHT22;29440;48.208;11.162;2023-04-03T14:59:53;6.00;99.90
43810;DHT22;29440;48.208;11.162;2023-04-03T15:02:37;6.10;99.90
43810;DHT22;29440;48.208;11.162;2023-04-03T15:05:06;6.20;99.90
43810;DHT22;29440;48.208;11.162;2023-04-03T15:07:34;6.30;99.90
43810;DHT22;29440;48.208;11.162;2023-04-03T15:10:20;6.30;99.90
43810;DHT22;29440;48.208;11.162;2023-04-03T15:12:47;6.30;99.90
43810;DHT22;29440;48.208;11.162;2023-04-03T15:15:14;6.40;99.90
43810;DHT22;29440;48.208;11.162;2023-04-03T15:17:41;6.40;99.90
43810;DHT22;29440;48.208;11.162;2023-04-03T15:20:22;6.30;99.80
43810;DHT22;29440;48.208;11.162;2023-04-03T15:22:48;6.30;99.30
43810;DHT22;29440;48.208;11.162;2023-04-03T15:25:14;6.30;99.80
43810;DHT22;29440;48.208;11.162;2023-04-03T15:27:41;6.30;99.90
43810;DHT22;29440;48.208;11.162;2023-04-03T15:30:08;6.30;99.90
43810;DHT22;29440;48.208;11.162;2023-04-03T15:32:33;6.20;99.90
43810;DHT22;29440;48.208;11.162;2023-04-03T15:35:00;6.20;99.80
43810;DHT22;29440;48.208;11.162;2023-04-03T15:37:26;6.20;99.60
43810;DHT22;29440;48.208;11.162;2023-04-03T15:39:52;6.00;99.00
43810;DHT22;29440;48.208;11.162;2023-04-03T15:42:17;6.00;98.60
43810;DHT22;29440;48.208;11.162;2023-04-03T15:44:43;5.90;99.20
43810;DHT22;29440;48.208;11.162;2023-04-03T15:47:09;5.80;98.70
43810;DHT22;29440;48.208;11.162;2023-04-03T15:49:34;5.90;99.60
43810;DHT22;29440;48.208;11.162;2023-04-03T15:52:00;5.90;98.80
43810;DHT22;29440;48.208;11.162;2023-04-03T15:54:26;6.00;98.60
43810;DHT22;29440;48.208;11.162;2023-04-03T15:56:53;6.10;98.00
43810;DHT22;29440;48.208;11.162;2023-04-03T15:59:18;6.10;97.20
43810;DHT22;29440;48.208;11.162;2023-04-03T16:01:45;6.10;96.90
43810;DHT22;29440;48.208;11.162;2023-04-03T16:04:10;6.10;97.40
43810;DHT22;29440;48.208;11.162;2023-04-03T16:06:37;6.20;97.10
43810;DHT22;29440;48.208;11.162;2023-04-03T16:09:03;6.30;97.50
43810;DHT22;29440;48.208;11.162;2023-04-03T16:11:29;6.20;96.70
43810;DHT22;29440;48.208;11.162;2023-04-03T16:13:55;6.20;96.90
43810;DHT22;29440;48.208;11.162;2023-04-03T16:16:22;6.20;96.50
43810;DHT22;29440;48.208;11.162;2023-04-03T16:18:49;6.20;97.50
43810;DHT22;29440;48.208;11.162;2023-04-03T16:21:16;6.10;97.60
43810;DHT22;29440;48.208;11.162;2023-04-03T16:23:42;6.00;98.00
43810;DHT22;29440;48.208;11.162;2023-04-03T16:26:08;5.80;97.30
43810;DHT22;29440;48.208;11.162;2023-04-03T16:28:34;5.70;96.90
43810;DHT22;29440;48.208;11.162;2023-04-03T16:31:00;5.50;97.20
43810;DHT22;29440;48.208;11.162;2023-04-03T16:33:26;5.40;97.80
43810;DHT22;29440;48.208;11.162;2023-04-03T16:35:52;5.30;98.00
43810;DHT22;29440;48.208;11.162;2023-04-03T16:38:18;5.20;97.90
43810;DHT22;29440;48.208;11.162;2023-04-03T16:40:44;5.20;98.70
43810;DHT22;29440;48.208;11.162;2023-04-03T16:43:13;5.10;98.50
43810;DHT22;29440;48.208;11.162;2023-04-03T16:45:38;5.00;97.70
43810;DHT22;29440;48.208;11.162;2023-04-03T16:48:04;5.00;97.90
43810;DHT22;29440;48.208;11.162;2023-04-03T16:50:30;5.00;97.70
43810;DHT22;29440;48.208;11.162;2023-04-03T16:52:55;5.00;98.00
43810;DHT22;29440;48.208;11.162;2023-04-03T16:55:21;5.00;97.60
43810;DHT22;29440;48.208;11.162;2023-04-03T16:57:47;4.90;97.70
43810;DHT22;29440;48.208;11.162;2023-04-03T17:00:15;4.80;97.60
43810;DHT22;29440;48.208;11.162;2023-04-03T17:02:41;4.80;98.40
43810;DHT22;29440;48.208;11.162;2023-04-03T17:05:09;4.80;98.70
43810;DHT22;29440;48.208;11.162;2023-04-03T17:07:35;4.70;98.70
43810;DHT22;29440;48.208;11.162;2023-04-03T17:10:03;4.70;98.40
43810;DHT22;29440;48.208;11.162;2023-04-03T17:12:28;4.60;98.80
43810;DHT22;29440;48.208;11.162;2023-04-03T17:14:54;4.50;98.90
43810;DHT22;29440;48.208;11.162;2023-04-03T17:17:22;4.40;98.90
43810;DHT22;29440;48.208;11.162;2023-04-03T17:19:49;4.40;99.20
43810;DHT22;29440;48.208;11.162;2023-04-03T17:22:15;4.30;98.90
43810;DHT22;29440;48.208;11.162;2023-04-03T17:24:42;4.20;99.20
43810;DHT22;29440;48.208;11.162;2023-04-03T17:27:08;4.10;99.10
43810;DHT22;29440;48.208;11.162;2023-04-03T17:29:33;4.00;99.60
43810;DHT22;29440;48.208;11.162;2023-04-03T17:31:59;3.90;99.50
43810;DHT22;29440;48.208;11.162;2023-04-03T17:34:24;3.90;99.50
43810;DHT22;29440;48.208;11.162;2023-04-03T17:36:50;3.80;99.60